sensor_id;sensor_type;location;lat;lon;timestamp;P1;durP1;ratioP1;P2;durP2;ratioP2
13605;SDS011;6874;52.084;5.090;2024-02-28T00:02:07;37.83;;;36.60;;
13605;SDS011;6874;52.084;5.090;2024-02-28T00:04:33;24.33;;;23.57;;
13605;SDS011;6874;52.084;5.090;2024-02-28T00:06:58;32.90;;;31.83;;
13605;SDS011;6874;52.084;5.090;2024-02-28T00:09:24;48.60;;;47.03;;
13605;SDS011;6874;52.084;5.090;2024-02-28T00:11:50;52.60;;;50.87;;
13605;SDS011;6874;52.084;5.090;2024-02-28T00:14:15;50.93;;;49.27;;
13605;SDS011;6874;52.084;5.090;2024-02-28T00:16:44;57.47;;;55.57;;
13605;SDS011;6874;52.084;5.090;2024-02-28T00:19:11;60.50;;;58.50;;
13605;SDS011;6874;52.084;5.090;2024-02-28T00:21:37;55.73;;;53.93;;
13605;SDS011;6874;52.084;5.090;2024-02-28T00:24:03;31.67;;;30.67;;
13605;SDS011;6874;52.084;5.090;2024-02-28T00:26:29;48.60;;;47.00;;
13605;SDS011;6874;52.084;5.090;2024-02-28T00:28:55;43.73;;;42.30;;
13605;SDS011;6874;52.084;5.090;2024-02-28T00:31:21;12.77;;;12.37;;
13605;SDS011;6874;52.084;5.090;2024-02-28T00:33:47;33.40;;;32.33;;
13605;SDS011;6874;52.084;5.090;2024-02-28T00:36:13;14.77;;;14.37;;
13605;SDS011;6874;52.084;5.090;2024-02-28T00:38:40;10.03;;;9.73;;
13605;SDS011;6874;52.084;5.090;2024-02-28T00:41:05;24.53;;;23.73;;
13605;SDS011;6874;52.084;5.090;2024-02-28T00:43:31;21.57;;;20.87;;
13605;SDS011;6874;52.084;5.090;2024-02-28T00:45:57;22.13;;;21.43;;
13605;SDS011;6874;52.084;5.090;2024-02-28T00:48:23;20.57;;;19.93;;
13605;SDS011;6874;52.084;5.090;2024-02-28T00:50:49;20.47;;;19.83;;
13605;SDS011;6874;52.084;5.090;2024-02-28T00:53:15;21.23;;;20.57;;
13605;SDS011;6874;52.084;5.090;2024-02-28T00:55:41;5.30;;;5.20;;
13605;SDS011;6874;52.084;5.090;2024-02-28T00:58:06;6.63;;;6.43;;
13605;SDS011;6874;52.084;5.090;2024-02-28T01:00:32;6.60;;;6.40;;
13605;SDS011;6874;52.084;5.090;2024-02-28T01:02:57;6.07;;;5.90;;
13605;SDS011;6874;52.084;5.090;2024-02-28T01:05:23;24.47;;;23.70;;
13605;SDS011;6874;52.084;5.090;2024-02-28T01:07:51;23.30;;;22.57;;
13605;SDS011;6874;52.084;5.090;2024-02-28T01:10:17;25.50;;;24.67;;
13605;SDS011;6874;52.084;5.090;2024-02-28T01:12:43;7.90;;;7.67;;
13605;SDS011;6874;52.084;5.090;2024-02-28T01:15:08;24.60;;;23.83;;
13605;SDS011;6874;52.084;5.090;2024-02-28T01:17:34;11.63;;;11.30;;
13605;SDS011;6874;52.084;5.090;2024-02-28T01:20:00;14.43;;;14.00;;
13605;SDS011;6874;52.084;5.090;2024-02-28T01:22:25;6.03;;;5.87;;
13605;SDS011;6874;52.084;5.090;2024-02-28T01:24:51;6.87;;;6.67;;
13605;SDS011;6874;52.084;5.090;2024-02-28T01:27:16;5.83;;;5.67;;
13605;SDS011;6874;52.084;5.090;2024-02-28T01:29:42;6.67;;;6.47;;
13605;SDS011;6874;52.084;5.090;2024-02-28T01:32:07;7.27;;;7.07;;
13605;SDS011;6874;52.084;5.090;2024-02-28T01:34:33;25.83;;;25.00;;
13605;SDS011;6874;52.084;5.090;2024-02-28T01:36:58;26.33;;;25.50;;
13605;SDS011;6874;52.084;5.090;2024-02-28T01:39:24;25.70;;;24.90;;
13605;SDS011;6874;52.084;5.090;2024-02-28T01:41:53;5.13;;;5.03;;
13605;SDS011;6874;52.084;5.090;2024-02-28T01:44:20;5.20;;;5.10;;
13605;SDS011;6874;52.084;5.090;2024-02-28T01:46:46;6.30;;;6.10;;
13605;SDS011;6874;52.084;5.090;2024-02-28T01:49:12;23.43;;;22.70;;
13605;SDS011;6874;52.084;5.090;2024-02-28T01:51:38;6.23;;;6.03;;
13605;SDS011;6874;52.084;5.090;2024-02-28T01:54:04;4.97;;;4.87;;
13605;SDS011;6874;52.084;5.090;2024-02-28T01:56:31;8.57;;;8.33;;
13605;SDS011;6874;52.084;5.090;2024-02-28T01:58:57;5.63;;;5.50;;
13605;SDS011;6874;52.084;5.090;2024-02-28T02:01:23;5.47;;;5.33;;
13605;SDS011;6874;52.084;5.090;2024-02-28T02:03:48;6.77;;;6.57;;
13605;SDS011;6874;52.084;5.090;2024-02-28T02:06:14;6.43;;;6.23;;
13605;SDS011;6874;52.084;5.090;2024-02-28T02:08:40;7.37;;;7.17;;
13605;SDS011;6874;52.084;5.090;2024-02-28T02:11:06;29.77;;;28.80;;
13605;SDS011;6874;52.084;5.090;2024-02-28T02:13:31;33.37;;;32.30;;
13605;SDS011;6874;52.084;5.090;2024-02-28T02:15:57;5.57;;;5.47;;
13605;SDS011;6874;52.084;5.090;2024-02-28T02:18:23;6.87;;;6.67;;
13605;SDS011;6874;52.084;5.090;2024-02-28T02:20:50;7.07;;;6.87;;
13605;SDS011;6874;52.084;5.090;2024-02-28T02:23:20;7.20;;;7.00;;
13605;SDS011;6874;52.084;5.090;2024-02-28T02:25:45;20.63;;;20.00;;
13605;SDS011;6874;52.084;5.090;2024-02-28T02:28:14;11.70;;;11.33;;
13605;SDS011;6874;52.084;5.090;2024-02-28T02:30:40;6.60;;;6.40;;
13605;SDS011;6874;52.084;5.090;2024-02-28T02:33:10;5.63;;;5.50;;
13605;SDS011;6874;52.084;5.090;2024-02-28T02:35:35;7.23;;;7.03;;
13605;SDS011;6874;52.084;5.090;2024-02-28T02:38:01;5.60;;;5.50;;
13605;SDS011;6874;52.084;5.090;2024-02-28T02:40:27;6.80;;;6.60;;
13605;SDS011;6874;52.084;5.090;2024-02-28T02:42:52;6.77;;;6.57;;
13605;SDS011;6874;52.084;5.090;2024-02-28T02:45:18;6.63;;;6.43;;
13605;SDS011;6874;52.084;5.090;2024-02-28T02:47:43;28.67;;;27.77;;
13605;SDS011;6874;52.084;5.090;2024-02-28T02:50:09;29.60;;;28.67;;
13605;SDS011;6874;52.084;5.090;2024-02-28T02:52:35;8.40;;;8.17;;
13605;SDS011;6874;52.084;5.090;2024-02-28T02:55:01;30.57;;;29.60;;
13605;SDS011;6874;52.084;5.090;2024-02-28T02:57:27;5.97;;;5.77;;
13605;SDS011;6874;52.084;5.090;2024-02-28T02:59:52;6.10;;;5.90;;
13605;SDS011;6874;52.084;5.090;2024-02-28T03:02:18;8.60;;;8.40;;
13605;SDS011;6874;52.084;5.090;2024-02-28T03:04:45;14.87;;;14.40;;
13605;SDS011;6874;52.084;5.090;2024-02-28T03:07:10;5.60;;;5.50;;
13605;SDS011;6874;52.084;5.090;2024-02-28T03:09:36;6.03;;;5.83;;
13605;SDS011;6874;52.084;5.090;2024-02-28T03:12:02;5.50;;;5.37;;
13605;SDS011;6874;52.084;5.090;2024-02-28T03:14:27;6.50;;;6.30;;
13605;SDS011;6874;52.084;5.090;2024-02-28T03:16:53;11.97;;;11.60;;
13605;SDS011;6874;52.084;5.090;2024-02-28T03:19:19;23.97;;;23.20;;
13605;SDS011;6874;52.084;5.090;2024-02-28T03:21:44;7.37;;;7.17;;
13605;SDS011;6874;52.084;5.090;2024-02-28T03:24:10;26.70;;;25.87;;
13605;SDS011;6874;52.084;5.090;2024-02-28T03:26:36;6.10;;;5.90;;
13605;SDS011;6874;52.084;5.090;2024-02-28T03:29:01;5.63;;;5.53;;
13605;SDS011;6874;52.084;5.090;2024-02-28T03:31:27;6.27;;;6.07;;
13605;SDS011;6874;52.084;5.090;2024-02-28T03:33:53;6.50;;;6.30;;
13605;SDS011;6874;52.084;5.090;2024-02-28T03:36:19;23.07;;;22.33;;
13605;SDS011;6874;52.084;5.090;2024-02-28T03:38:44;23.97;;;23.23;;
13605;SDS011;6874;52.084;5.090;2024-02-28T03:41:10;5.67;;;5.47;;
13605;SDS011;6874;52.084;5.090;2024-02-28T03:43:36;5.57;;;5.43;;
13605;SDS011;6874;52.084;5.090;2024-02-28T03:46:02;16.63;;;16.13;;
13605;SDS011;6874;52.084;5.090;2024-02-28T03:48:27;5.00;;;4.90;;
13605;SDS011;6874;52.084;5.090;2024-02-28T03:50:53;4.80;;;4.70;;
13605;SDS011;6874;52.084;5.090;2024-02-28T03:53:18;5.60;;;5.50;;
13605;SDS011;6874;52.084;5.090;2024-02-28T03:55:44;6.67;;;6.47;;
13605;SDS011;6874;52.084;5.090;2024-02-28T03:58:10;6.00;;;5.80;;
13605;SDS011;6874;52.084;5.090;2024-02-28T04:00:36;5.87;;;5.67;;
13605;SDS011;6874;52.084;5.090;2024-02-28T04:03:02;33.73;;;32.63;;
13605;SDS011;6874;52.084;5.090;2024-02-28T04:05:28;46.40;;;44.87;;
13605;SDS011;6874;52.084;5.090;2024-02-28T04:07:54;9.50;;;9.20;;
13605;SDS011;6874;52.084;5.090;2024-02-28T04:10:20;8.53;;;8.33;;
13605;SDS011;6874;52.084;5.090;2024-02-28T04:12:45;53.27;;;51.50;;
13605;SDS011;6874;52.084;5.090;2024-02-28T04:15:11;53.73;;;51.93;;
13605;SDS011;6874;52.084;5.090;2024-02-28T04:17:37;12.10;;;11.73;;
13605;SDS011;6874;52.084;5.090;2024-02-28T04:20:03;34.37;;;33.27;;
13605;SDS011;6874;52.084;5.090;2024-02-28T04:22:38;39.53;;;38.23;;
13605;SDS011;6874;52.084;5.090;2024-02-28T04:25:05;9.17;;;8.87;;
13605;SDS011;6874;52.084;5.090;2024-02-28T04:27:32;41.20;;;39.90;;
13605;SDS011;6874;52.084;5.090;2024-02-28T04:29:57;38.97;;;37.67;;
13605;SDS011;6874;52.084;5.090;2024-02-28T04:32:23;6.60;;;6.40;;
13605;SDS011;6874;52.084;5.090;2024-02-28T04:34:49;6.73;;;6.53;;
13605;SDS011;6874;52.084;5.090;2024-02-28T04:37:14;9.30;;;9.00;;
13605;SDS011;6874;52.084;5.090;2024-02-28T04:39:40;31.47;;;30.47;;
13605;SDS011;6874;52.084;5.090;2024-02-28T04:42:06;33.70;;;32.60;;
13605;SDS011;6874;52.084;5.090;2024-02-28T04:44:31;34.27;;;33.17;;
13605;SDS011;6874;52.084;5.090;2024-02-28T04:46:57;7.23;;;7.03;;
13605;SDS011;6874;52.084;5.090;2024-02-28T04:49:22;7.13;;;6.93;;
13605;SDS011;6874;52.084;5.090;2024-02-28T04:51:48;6.80;;;6.60;;
13605;SDS011;6874;52.084;5.090;2024-02-28T04:54:14;7.80;;;7.60;;
13605;SDS011;6874;52.084;5.090;2024-02-28T04:56:40;37.57;;;36.37;;
13605;SDS011;6874;52.084;5.090;2024-02-28T04:59:06;39.23;;;37.93;;
13605;SDS011;6874;52.084;5.090;2024-02-28T05:01:32;41.10;;;39.77;;
13605;SDS011;6874;52.084;5.090;2024-02-28T05:03:57;13.67;;;13.27;;
13605;SDS011;6874;52.084;5.090;2024-02-28T05:06:23;14.37;;;13.97;;
13605;SDS011;6874;52.084;5.090;2024-02-28T05:08:48;49.10;;;47.47;;
13605;SDS011;6874;52.084;5.090;2024-02-28T05:11:14;51.80;;;50.07;;
13605;SDS011;6874;52.084;5.090;2024-02-28T05:13:40;56.00;;;54.13;;
13605;SDS011;6874;52.084;5.090;2024-02-28T05:16:11;56.30;;;54.40;;
13605;SDS011;6874;52.084;5.090;2024-02-28T05:18:38;58.87;;;56.90;;
13605;SDS011;6874;52.084;5.090;2024-02-28T05:21:03;60.83;;;58.80;;
13605;SDS011;6874;52.084;5.090;2024-02-28T05:23:29;66.43;;;64.20;;
13605;SDS011;6874;52.084;5.090;2024-02-28T05:25:55;68.10;;;65.80;;
13605;SDS011;6874;52.084;5.090;2024-02-28T05:28:22;8.07;;;7.87;;
13605;SDS011;6874;52.084;5.090;2024-02-28T05:30:48;9.57;;;9.27;;
13605;SDS011;6874;52.084;5.090;2024-02-28T05:33:13;11.57;;;11.23;;
13605;SDS011;6874;52.084;5.090;2024-02-28T05:35:39;52.70;;;51.00;;
13605;SDS011;6874;52.084;5.090;2024-02-28T05:38:04;68.57;;;66.27;;
13605;SDS011;6874;52.084;5.090;2024-02-28T05:40:30;66.77;;;64.50;;
13605;SDS011;6874;52.084;5.090;2024-02-28T05:42:56;11.63;;;11.30;;
13605;SDS011;6874;52.084;5.090;2024-02-28T05:45:21;10.47;;;10.17;;
13605;SDS011;6874;52.084;5.090;2024-02-28T05:47:47;15.40;;;14.93;;
13605;SDS011;6874;52.084;5.090;2024-02-28T05:50:12;12.67;;;12.27;;
13605;SDS011;6874;52.084;5.090;2024-02-28T05:52:41;10.97;;;10.67;;
13605;SDS011;6874;52.084;5.090;2024-02-28T05:55:07;54.80;;;52.93;;
13605;SDS011;6874;52.084;5.090;2024-02-28T05:57:33;11.50;;;11.17;;
13605;SDS011;6874;52.084;5.090;2024-02-28T05:59:59;14.63;;;14.17;;
13605;SDS011;6874;52.084;5.090;2024-02-28T06:02:24;65.17;;;63.00;;
13605;SDS011;6874;52.084;5.090;2024-02-28T06:04:50;11.53;;;11.20;;
13605;SDS011;6874;52.084;5.090;2024-02-28T06:07:16;15.73;;;15.27;;
13605;SDS011;6874;52.084;5.090;2024-02-28T06:09:41;15.50;;;15.03;;
13605;SDS011;6874;52.084;5.090;2024-02-28T06:12:07;23.23;;;22.50;;
13605;SDS011;6874;52.084;5.090;2024-02-28T06:14:32;62.37;;;60.27;;
13605;SDS011;6874;52.084;5.090;2024-02-28T06:16:58;56.53;;;54.63;;
13605;SDS011;6874;52.084;5.090;2024-02-28T06:19:23;59.93;;;57.93;;
13605;SDS011;6874;52.084;5.090;2024-02-28T06:21:49;64.50;;;62.30;;
13605;SDS011;6874;52.084;5.090;2024-02-28T06:24:15;64.33;;;62.13;;
13605;SDS011;6874;52.084;5.090;2024-02-28T06:26:40;38.90;;;37.60;;
13605;SDS011;6874;52.084;5.090;2024-02-28T06:29:08;62.63;;;60.53;;
13605;SDS011;6874;52.084;5.090;2024-02-28T06:31:34;60.37;;;58.37;;
13605;SDS011;6874;52.084;5.090;2024-02-28T06:33:59;20.50;;;19.87;;
13605;SDS011;6874;52.084;5.090;2024-02-28T06:36:25;10.67;;;10.37;;
13605;SDS011;6874;52.084;5.090;2024-02-28T06:38:50;14.50;;;14.07;;
13605;SDS011;6874;52.084;5.090;2024-02-28T06:41:16;13.53;;;13.10;;
13605;SDS011;6874;52.084;5.090;2024-02-28T06:43:42;32.43;;;31.40;;
13605;SDS011;6874;52.084;5.090;2024-02-28T06:46:07;60.10;;;58.10;;
13605;SDS011;6874;52.084;5.090;2024-02-28T06:48:34;57.93;;;56.00;;
13605;SDS011;6874;52.084;5.090;2024-02-28T06:51:00;53.53;;;51.73;;
13605;SDS011;6874;52.084;5.090;2024-02-28T06:53:25;61.53;;;59.43;;
13605;SDS011;6874;52.084;5.090;2024-02-28T06:55:51;12.20;;;11.83;;
13605;SDS011;6874;52.084;5.090;2024-02-28T06:58:17;12.07;;;11.70;;
13605;SDS011;6874;52.084;5.090;2024-02-28T07:00:42;57.47;;;55.57;;
13605;SDS011;6874;52.084;5.090;2024-02-28T07:03:08;57.20;;;55.30;;
13605;SDS011;6874;52.084;5.090;2024-02-28T07:05:34;43.33;;;41.90;;
13605;SDS011;6874;52.084;5.090;2024-02-28T07:08:00;60.73;;;58.70;;
13605;SDS011;6874;52.084;5.090;2024-02-28T07:10:25;12.77;;;12.40;;
13605;SDS011;6874;52.084;5.090;2024-02-28T07:12:51;56.03;;;54.13;;
13605;SDS011;6874;52.084;5.090;2024-02-28T07:15:16;29.60;;;28.63;;
13605;SDS011;6874;52.084;5.090;2024-02-28T07:17:46;55.13;;;53.30;;
13605;SDS011;6874;52.084;5.090;2024-02-28T07:20:12;56.00;;;54.10;;
13605;SDS011;6874;52.084;5.090;2024-02-28T07:22:38;49.77;;;48.10;;
13605;SDS011;6874;52.084;5.090;2024-02-28T07:25:04;50.80;;;49.10;;
13605;SDS011;6874;52.084;5.090;2024-02-28T07:27:30;14.07;;;13.63;;
13605;SDS011;6874;52.084;5.090;2024-02-28T07:29:56;35.57;;;34.40;;
13605;SDS011;6874;52.084;5.090;2024-02-28T07:32:22;51.37;;;49.67;;
13605;SDS011;6874;52.084;5.090;2024-02-28T07:34:48;38.80;;;37.53;;
13605;SDS011;6874;52.084;5.090;2024-02-28T07:37:13;50.90;;;49.20;;
13605;SDS011;6874;52.084;5.090;2024-02-28T07:39:39;24.97;;;24.17;;
13605;SDS011;6874;52.084;5.090;2024-02-28T07:42:05;46.07;;;44.57;;
13605;SDS011;6874;52.084;5.090;2024-02-28T07:44:30;43.13;;;41.70;;
13605;SDS011;6874;52.084;5.090;2024-02-28T07:46:57;40.17;;;38.83;;
13605;SDS011;6874;52.084;5.090;2024-02-28T07:49:23;44.43;;;42.93;;
13605;SDS011;6874;52.084;5.090;2024-02-28T07:51:49;20.10;;;19.50;;
13605;SDS011;6874;52.084;5.090;2024-02-28T07:54:15;44.80;;;43.30;;
13605;SDS011;6874;52.084;5.090;2024-02-28T07:56:41;40.00;;;38.67;;
13605;SDS011;6874;52.084;5.090;2024-02-28T07:59:06;21.57;;;20.87;;
13605;SDS011;6874;52.084;5.090;2024-02-28T08:01:32;14.70;;;14.27;;
13605;SDS011;6874;52.084;5.090;2024-02-28T08:03:58;15.20;;;14.73;;
13605;SDS011;6874;52.084;5.090;2024-02-28T08:06:24;35.50;;;34.30;;
13605;SDS011;6874;52.084;5.090;2024-02-28T08:08:50;31.10;;;30.10;;
13605;SDS011;6874;52.084;5.090;2024-02-28T08:11:15;31.47;;;30.47;;
13605;SDS011;6874;52.084;5.090;2024-02-28T08:13:41;30.03;;;29.03;;
13605;SDS011;6874;52.084;5.090;2024-02-28T08:16:08;14.37;;;13.93;;
13605;SDS011;6874;52.084;5.090;2024-02-28T08:18:34;26.10;;;25.30;;
13605;SDS011;6874;52.084;5.090;2024-02-28T08:21:00;27.60;;;26.70;;
13605;SDS011;6874;52.084;5.090;2024-02-28T08:23:27;25.80;;;24.97;;
13605;SDS011;6874;52.084;5.090;2024-02-28T08:25:52;12.77;;;12.40;;
13605;SDS011;6874;52.084;5.090;2024-02-28T08:28:19;24.57;;;23.80;;
13605;SDS011;6874;52.084;5.090;2024-02-28T08:30:44;21.83;;;21.13;;
13605;SDS011;6874;52.084;5.090;2024-02-28T08:33:10;21.27;;;20.60;;
13605;SDS011;6874;52.084;5.090;2024-02-28T08:35:36;14.10;;;13.67;;
13605;SDS011;6874;52.084;5.090;2024-02-28T08:38:01;19.00;;;18.43;;
13605;SDS011;6874;52.084;5.090;2024-02-28T08:40:28;19.20;;;18.60;;
13605;SDS011;6874;52.084;5.090;2024-02-28T08:42:54;19.30;;;18.70;;
13605;SDS011;6874;52.084;5.090;2024-02-28T08:45:20;17.97;;;17.40;;
13605;SDS011;6874;52.084;5.090;2024-02-28T08:47:47;13.93;;;13.50;;
13605;SDS011;6874;52.084;5.090;2024-02-28T08:50:12;16.17;;;15.70;;
13605;SDS011;6874;52.084;5.090;2024-02-28T08:52:38;16.33;;;15.83;;
13605;SDS011;6874;52.084;5.090;2024-02-28T08:55:03;10.53;;;10.20;;
13605;SDS011;6874;52.084;5.090;2024-02-28T08:57:29;15.70;;;15.23;;
13605;SDS011;6874;52.084;5.090;2024-02-28T08:59:55;15.57;;;15.07;;
13605;SDS011;6874;52.084;5.090;2024-02-28T09:02:21;9.47;;;9.17;;
13605;SDS011;6874;52.084;5.090;2024-02-28T09:04:46;19.93;;;19.33;;
13605;SDS011;6874;52.084;5.090;2024-02-28T09:07:16;22.83;;;22.13;;
13605;SDS011;6874;52.084;5.090;2024-02-28T09:09:44;26.33;;;25.50;;
13605;SDS011;6874;52.084;5.090;2024-02-28T09:12:10;40.20;;;38.87;;
13605;SDS011;6874;52.084;5.090;2024-02-28T09:14:36;42.33;;;40.97;;
13605;SDS011;6874;52.084;5.090;2024-02-28T09:17:01;38.23;;;37.03;;
13605;SDS011;6874;52.084;5.090;2024-02-28T09:19:30;74.83;;;72.37;;
13605;SDS011;6874;52.084;5.090;2024-02-28T09:21:56;57.57;;;55.57;;
13605;SDS011;6874;52.084;5.090;2024-02-28T09:24:22;87.40;;;84.43;;
13605;SDS011;6874;52.084;5.090;2024-02-28T09:26:48;86.60;;;83.63;;
13605;SDS011;6874;52.084;5.090;2024-02-28T09:29:14;92.60;;;89.43;;
13605;SDS011;6874;52.084;5.090;2024-02-28T09:31:39;86.07;;;83.17;;
13605;SDS011;6874;52.084;5.090;2024-02-28T09:34:05;86.70;;;83.73;;
13605;SDS011;6874;52.084;5.090;2024-02-28T09:36:33;87.03;;;84.13;;
13605;SDS011;6874;52.084;5.090;2024-02-28T09:39:05;78.73;;;76.13;;
13605;SDS011;6874;52.084;5.090;2024-02-28T09:41:31;63.60;;;61.50;;
13605;SDS011;6874;52.084;5.090;2024-02-28T09:43:56;75.23;;;72.73;;
13605;SDS011;6874;52.084;5.090;2024-02-28T09:46:23;71.30;;;68.90;;
13605;SDS011;6874;52.084;5.090;2024-02-28T09:48:49;70.73;;;68.33;;
13605;SDS011;6874;52.084;5.090;2024-02-28T09:51:15;70.43;;;68.03;;
13605;SDS011;6874;52.084;5.090;2024-02-28T09:53:46;41.20;;;39.87;;
13605;SDS011;6874;52.084;5.090;2024-02-28T09:56:11;40.87;;;39.57;;
13605;SDS011;6874;52.084;5.090;2024-02-28T09:58:38;41.40;;;40.07;;
13605;SDS011;6874;52.084;5.090;2024-02-28T10:01:04;41.20;;;39.90;;
13605;SDS011;6874;52.084;5.090;2024-02-28T10:03:34;38.03;;;36.83;;
13605;SDS011;6874;52.084;5.090;2024-02-28T10:06:01;29.80;;;28.83;;
13605;SDS011;6874;52.084;5.090;2024-02-28T10:08:27;30.73;;;29.73;;
13605;SDS011;6874;52.084;5.090;2024-02-28T10:10:54;40.37;;;39.07;;
13605;SDS011;6874;52.084;5.090;2024-02-28T10:13:21;34.23;;;33.13;;
13605;SDS011;6874;52.084;5.090;2024-02-28T10:15:47;36.53;;;35.33;;
13605;SDS011;6874;52.084;5.090;2024-02-28T10:18:14;30.77;;;29.77;;
13605;SDS011;6874;52.084;5.090;2024-02-28T10:20:40;32.23;;;31.23;;
13605;SDS011;6874;52.084;5.090;2024-02-28T10:23:05;33.17;;;32.07;;
13605;SDS011;6874;52.084;5.090;2024-02-28T10:28:10;23.53;;;22.83;;
13605;SDS011;6874;52.084;5.090;2024-02-28T10:30:42;27.37;;;26.47;;
13605;SDS011;6874;52.084;5.090;2024-02-28T10:33:14;30.73;;;29.73;;
13605;SDS011;6874;52.084;5.090;2024-02-28T10:35:41;27.97;;;27.07;;
13605;SDS011;6874;52.084;5.090;2024-02-28T10:38:09;27.73;;;26.83;;
13605;SDS011;6874;52.084;5.090;2024-02-28T10:40:36;25.20;;;24.40;;
13605;SDS011;6874;52.084;5.090;2024-02-28T10:43:02;28.57;;;27.67;;
13605;SDS011;6874;52.084;5.090;2024-02-28T10:45:30;28.87;;;27.97;;
13605;SDS011;6874;52.084;5.090;2024-02-28T10:47:56;23.03;;;22.33;;
13605;SDS011;6874;52.084;5.090;2024-02-28T10:50:22;29.30;;;28.40;;
13605;SDS011;6874;52.084;5.090;2024-02-28T10:52:48;28.80;;;27.90;;
13605;SDS011;6874;52.084;5.090;2024-02-28T10:55:18;25.00;;;24.20;;
13605;SDS011;6874;52.084;5.090;2024-02-28T10:57:50;27.27;;;26.37;;
13605;SDS011;6874;52.084;5.090;2024-02-28T11:00:23;28.00;;;27.10;;
13605;SDS011;6874;52.084;5.090;2024-02-28T11:02:49;30.07;;;29.07;;
13605;SDS011;6874;52.084;5.090;2024-02-28T11:05:14;31.53;;;30.53;;
13605;SDS011;6874;52.084;5.090;2024-02-28T11:07:41;35.73;;;34.53;;
13605;SDS011;6874;52.084;5.090;2024-02-28T11:10:07;29.40;;;28.47;;
13605;SDS011;6874;52.084;5.090;2024-02-28T11:12:35;32.70;;;31.60;;
13605;SDS011;6874;52.084;5.090;2024-02-28T11:15:02;30.60;;;29.63;;
13605;SDS011;6874;52.084;5.090;2024-02-28T11:17:31;37.50;;;36.30;;
13605;SDS011;6874;52.084;5.090;2024-02-28T11:19:57;40.67;;;39.37;;
13605;SDS011;6874;52.084;5.090;2024-02-28T11:22:23;44.47;;;43.00;;
13605;SDS011;6874;52.084;5.090;2024-02-28T11:24:53;49.67;;;48.03;;
13605;SDS011;6874;52.084;5.090;2024-02-28T11:27:19;49.13;;;47.53;;
13605;SDS011;6874;52.084;5.090;2024-02-28T11:29:45;56.60;;;54.70;;
13605;SDS011;6874;52.084;5.090;2024-02-28T11:32:12;61.93;;;59.90;;
13605;SDS011;6874;52.084;5.090;2024-02-28T11:34:38;59.27;;;57.30;;
13605;SDS011;6874;52.084;5.090;2024-02-28T11:37:05;57.27;;;55.37;;
13605;SDS011;6874;52.084;5.090;2024-02-28T11:39:31;62.90;;;60.80;;
13605;SDS011;6874;52.084;5.090;2024-02-28T11:44:36;58.23;;;56.30;;
13605;SDS011;6874;52.084;5.090;2024-02-28T11:47:01;60.67;;;58.60;;
13605;SDS011;6874;52.084;5.090;2024-02-28T11:49:27;70.63;;;68.23;;
13605;SDS011;6874;52.084;5.090;2024-02-28T11:51:53;59.53;;;57.50;;
13605;SDS011;6874;52.084;5.090;2024-02-28T11:54:18;59.47;;;57.47;;
13605;SDS011;6874;52.084;5.090;2024-02-28T11:56:44;65.93;;;63.67;;
13605;SDS011;6874;52.084;5.090;2024-02-28T11:59:10;58.70;;;56.67;;
13605;SDS011;6874;52.084;5.090;2024-02-28T12:01:37;61.17;;;59.03;;
13605;SDS011;6874;52.084;5.090;2024-02-28T12:04:04;52.73;;;50.93;;
13605;SDS011;6874;52.084;5.090;2024-02-28T12:06:30;50.93;;;49.17;;
13605;SDS011;6874;52.084;5.090;2024-02-28T12:08:57;50.07;;;48.37;;
13605;SDS011;6874;52.084;5.090;2024-02-28T12:11:24;43.87;;;42.37;;
13605;SDS011;6874;52.084;5.090;2024-02-28T12:13:52;44.20;;;42.67;;
13605;SDS011;6874;52.084;5.090;2024-02-28T12:16:21;41.93;;;40.53;;
13605;SDS011;6874;52.084;5.090;2024-02-28T12:18:48;35.93;;;34.73;;
13605;SDS011;6874;52.084;5.090;2024-02-28T12:21:13;31.97;;;30.93;;
13605;SDS011;6874;52.084;5.090;2024-02-28T12:23:39;25.00;;;24.20;;
13605;SDS011;6874;52.084;5.090;2024-02-28T12:26:04;20.63;;;20.00;;
13605;SDS011;6874;52.084;5.090;2024-02-28T12:28:30;22.40;;;21.70;;
13605;SDS011;6874;52.084;5.090;2024-02-28T12:30:55;21.57;;;20.87;;
13605;SDS011;6874;52.084;5.090;2024-02-28T12:33:21;19.77;;;19.17;;
13605;SDS011;6874;52.084;5.090;2024-02-28T12:35:47;19.63;;;19.03;;
13605;SDS011;6874;52.084;5.090;2024-02-28T12:38:13;22.77;;;22.07;;
13605;SDS011;6874;52.084;5.090;2024-02-28T12:40:40;26.27;;;25.43;;
13605;SDS011;6874;52.084;5.090;2024-02-28T12:43:07;33.20;;;32.10;;
13605;SDS011;6874;52.084;5.090;2024-02-28T12:45:32;48.80;;;47.20;;
13605;SDS011;6874;52.084;5.090;2024-02-28T12:47:58;52.43;;;50.70;;
13605;SDS011;6874;52.084;5.090;2024-02-28T12:50:26;54.37;;;52.57;;
13605;SDS011;6874;52.084;5.090;2024-02-28T12:52:51;55.83;;;53.97;;
13605;SDS011;6874;52.084;5.090;2024-02-28T12:55:19;54.07;;;52.27;;
13605;SDS011;6874;52.084;5.090;2024-02-28T12:57:46;58.83;;;56.87;;
13605;SDS011;6874;52.084;5.090;2024-02-28T13:00:12;63.83;;;61.70;;
13605;SDS011;6874;52.084;5.090;2024-02-28T13:02:38;59.70;;;57.73;;
13605;SDS011;6874;52.084;5.090;2024-02-28T13:05:04;62.80;;;60.70;;
13605;SDS011;6874;52.084;5.090;2024-02-28T13:07:29;56.27;;;54.37;;
13605;SDS011;6874;52.084;5.090;2024-02-28T13:09:55;56.23;;;54.37;;
13605;SDS011;6874;52.084;5.090;2024-02-28T13:12:21;51.83;;;50.13;;
13605;SDS011;6874;52.084;5.090;2024-02-28T13:14:47;49.77;;;48.13;;
13605;SDS011;6874;52.084;5.090;2024-02-28T13:17:13;53.87;;;52.07;;
13605;SDS011;6874;52.084;5.090;2024-02-28T13:19:38;51.53;;;49.83;;
13605;SDS011;6874;52.084;5.090;2024-02-28T13:22:04;44.53;;;43.03;;
13605;SDS011;6874;52.084;5.090;2024-02-28T13:24:30;53.37;;;51.60;;
13605;SDS011;6874;52.084;5.090;2024-02-28T13:26:56;48.27;;;46.67;;
13605;SDS011;6874;52.084;5.090;2024-02-28T13:29:21;44.43;;;42.97;;
13605;SDS011;6874;52.084;5.090;2024-02-28T13:31:47;40.90;;;39.53;;
13605;SDS011;6874;52.084;5.090;2024-02-28T13:34:12;31.37;;;30.37;;
13605;SDS011;6874;52.084;5.090;2024-02-28T13:36:38;32.17;;;31.13;;
13605;SDS011;6874;52.084;5.090;2024-02-28T13:39:07;30.13;;;29.13;;
13605;SDS011;6874;52.084;5.090;2024-02-28T13:41:34;34.47;;;33.33;;
13605;SDS011;6874;52.084;5.090;2024-02-28T13:43:59;36.70;;;35.50;;
13605;SDS011;6874;52.084;5.090;2024-02-28T13:46:25;39.67;;;38.33;;
13605;SDS011;6874;52.084;5.090;2024-02-28T13:48:50;41.80;;;40.40;;
13605;SDS011;6874;52.084;5.090;2024-02-28T13:51:16;44.10;;;42.60;;
13605;SDS011;6874;52.084;5.090;2024-02-28T13:53:42;45.83;;;44.30;;
13605;SDS011;6874;52.084;5.090;2024-02-28T13:56:07;44.33;;;42.83;;
13605;SDS011;6874;52.084;5.090;2024-02-28T13:58:33;45.30;;;43.80;;
13605;SDS011;6874;52.084;5.090;2024-02-28T14:00:58;39.43;;;38.13;;
13605;SDS011;6874;52.084;5.090;2024-02-28T14:03:24;42.10;;;40.70;;
13605;SDS011;6874;52.084;5.090;2024-02-28T14:05:50;39.97;;;38.63;;
13605;SDS011;6874;52.084;5.090;2024-02-28T14:08:17;40.43;;;39.10;;
13605;SDS011;6874;52.084;5.090;2024-02-28T14:10:42;40.67;;;39.33;;
13605;SDS011;6874;52.084;5.090;2024-02-28T14:13:08;37.03;;;35.83;;
13605;SDS011;6874;52.084;5.090;2024-02-28T14:15:36;40.20;;;38.90;;
13605;SDS011;6874;52.084;5.090;2024-02-28T14:18:02;39.93;;;38.63;;
13605;SDS011;6874;52.084;5.090;2024-02-28T14:20:28;36.27;;;35.07;;
13605;SDS011;6874;52.084;5.090;2024-02-28T14:22:54;35.17;;;34.03;;
13605;SDS011;6874;52.084;5.090;2024-02-28T14:25:21;37.27;;;36.07;;
13605;SDS011;6874;52.084;5.090;2024-02-28T14:27:47;39.00;;;37.70;;
13605;SDS011;6874;52.084;5.090;2024-02-28T14:30:13;34.87;;;33.73;;
13605;SDS011;6874;52.084;5.090;2024-02-28T14:32:39;35.40;;;34.27;;
13605;SDS011;6874;52.084;5.090;2024-02-28T14:35:06;35.80;;;34.60;;
13605;SDS011;6874;52.084;5.090;2024-02-28T14:37:36;41.23;;;39.87;;